Time;durP1;ratioP1;P1;durP2;ratioP2;P2;SDS_P1;SDS_P2;PMS_P1;PMS_P2;Temp;Humidity;BMP_temperature;BMP_pressure;BME280_temperature;BME280_humidity;BME280_pressure;Samples;Min_cycle;Max_cycle;Signal;HPM_P1;HPM_P2
2022/10/02 00:02:13;;;;;;;;;;;10.70;99.90;;;;;;5028979;28;20007;-69
2022/10/02 00:04:42;;;;;;;;;;;10.60;99.90;;;;;;5026052;28;19929;-70
2022/10/02 00:07:09;;;;;;;;;;;10.50;99.90;;;;;;5031780;28;20415;-69
2022/10/02 00:09:48;;;;;;;;;;;10.50;99.90;;;;;;5027101;28;19967;-69
2022/10/02 00:12:15;;;;;;;;;;;10.40;99.90;;;;;;5047753;28;19921;-69
2022/10/02 00:14:42;;;;;;;;;;;10.40;99.90;;;;;;5032111;28;19932;-69
2022/10/02 00:17:14;;;;;;;;;;;10.30;99.90;;;;;;5032074;28;19925;-69
2022/10/02 00:19:39;;;;;;;;;;;10.30;99.90;;;;;;4999394;28;19925;-69
2022/10/02 00:22:08;;;;;;;;;;;10.30;99.90;;;;;;5032031;28;19921;-69
2022/10/02 00:24:40;;;;;;;;;;;10.20;99.90;;;;;;5031120;28;20013;-69
2022/10/02 00:27:26;;;;;;;;;;;10.20;99.90;;;;;;5009166;28;19928;-69
2022/10/02 00:29:52;;;;;;;;;;;10.20;99.90;;;;;;5031540;28;19967;-69
2022/10/02 00:32:25;;;;;;;;;;;10.20;99.90;;;;;;5041809;28;19931;-70
2022/10/02 00:35:00;;;;;;;;;;;10.10;99.90;;;;;;5029165;28;20478;-69
2022/10/02 00:37:37;;;;;;;;;;;10.20;99.90;;;;;;5013521;28;19932;-69
2022/10/02 00:40:02;;;;;;;;;;;10.10;99.90;;;;;;5044889;23;20022;-69
2022/10/02 00:42:38;;;;;;;;;;;10.20;99.90;;;;;;5045267;28;21194;-69
2022/10/02 00:45:36;;;;;;;;;;;10.20;99.90;;;;;;5051686;28;19924;-70
2022/10/02 00:48:20;;;;;;;;;;;10.20;99.90;;;;;;5023168;28;19963;-70
2022/10/02 00:50:49;;;;;;;;;;;10.20;99.90;;;;;;5043675;28;20274;-70
2022/10/02 00:53:33;;;;;;;;;;;10.20;99.90;;;;;;5035214;28;19952;-70
2022/10/02 00:56:11;;;;;;;;;;;10.20;99.90;;;;;;5047520;28;19967;-70
2022/10/02 00:58:55;;;;;;;;;;;10.20;99.90;;;;;;5031195;28;19932;-70
2022/10/02 01:01:41;;;;;;;;;;;10.20;99.90;;;;;;5035459;28;19951;-70
2022/10/02 01:04:11;;;;;;;;;;;10.20;99.90;;;;;;5046288;28;19933;-70
2022/10/02 01:06:36;;;;;;;;;;;10.20;99.90;;;;;;5044873;28;20384;-70
2022/10/02 01:09:02;;;;;;;;;;;10.30;99.90;;;;;;5044516;28;19920;-70
2022/10/02 01:11:29;;;;;;;;;;;10.20;99.90;;;;;;5030831;28;20015;-70
2022/10/02 01:13:55;;;;;;;;;;;10.20;99.90;;;;;;5049633;28;20055;-70
2022/10/02 01:16:20;;;;;;;;;;;10.20;99.90;;;;;;5044495;28;20371;-70
2022/10/02 01:18:46;;;;;;;;;;;10.20;99.90;;;;;;5045522;28;20019;-70
2022/10/02 01:21:20;;;;;;;;;;;10.20;99.90;;;;;;5046895;28;19979;-70
2022/10/02 01:23:50;;;;;;;;;;;10.20;99.90;;;;;;5033285;28;19921;-70
2022/10/02 01:26:16;;;;;;;;;;;10.20;99.90;;;;;;5047628;28;19964;-70
2022/10/02 01:28:41;;;;;;;;;;;10.20;99.90;;;;;;5038969;28;19975;-70
2022/10/02 01:31:09;;;;;;;;;;;10.20;99.90;;;;;;5044628;28;20363;-70
2022/10/02 01:33:35;;;;;;;;;;;10.20;99.90;;;;;;5049776;28;20473;-70
2022/10/02 01:36:01;;;;;;;;;;;10.20;99.90;;;;;;5045259;28;20491;-70
2022/10/02 01:38:27;;;;;;;;;;;10.20;99.90;;;;;;5048694;28;19932;-70
2022/10/02 01:40:52;;;;;;;;;;;10.10;99.90;;;;;;5046024;28;20397;-70
2022/10/02 01:43:19;;;;;;;;;;;10.20;99.90;;;;;;5045152;28;19921;-70
2022/10/02 01:45:54;;;;;;;;;;;10.20;99.90;;;;;;5050047;28;19924;-70
2022/10/02 01:48:33;;;;;;;;;;;10.20;99.90;;;;;;5042751;28;19959;-70
2022/10/02 01:50:58;;;;;;;;;;;10.20;99.90;;;;;;5033081;28;19963;-70
2022/10/02 01:53:41;;;;;;;;;;;10.20;99.90;;;;;;5042798;28;19963;-70
2022/10/02 01:56:14;;;;;;;;;;;10.20;99.90;;;;;;5048225;28;19977;-70
2022/10/02 01:59:04;;;;;;;;;;;10.30;99.90;;;;;;5046684;28;19976;-70
2022/10/02 02:01:34;;;;;;;;;;;10.40;99.90;;;;;;5040954;28;19925;-70
2022/10/02 02:04:00;;;;;;;;;;;10.40;99.90;;;;;;5039148;28;19925;-70
2022/10/02 02:06:28;;;;;;;;;;;10.40;99.90;;;;;;5046603;28;19928;-70
2022/10/02 02:08:59;;;;;;;;;;;10.40;99.90;;;;;;5046773;28;20367;-70
2022/10/02 02:11:25;;;;;;;;;;;10.40;99.90;;;;;;5048297;28;19925;-70
2022/10/02 02:13:57;;;;;;;;;;;10.50;99.90;;;;;;5022782;28;19975;-70
2022/10/02 02:16:37;;;;;;;;;;;10.50;99.90;;;;;;5040388;28;19927;-70
2022/10/02 02:19:05;;;;;;;;;;;10.50;99.90;;;;;;5040243;28;19925;-70
2022/10/02 02:21:57;;;;;;;;;;;10.50;99.90;;;;;;5036318;28;20378;-70
2022/10/02 02:24:42;;;;;;;;;;;10.40;99.90;;;;;;5044656;28;19921;-70
2022/10/02 02:27:10;;;;;;;;;;;10.50;99.90;;;;;;5037343;28;19925;-70
2022/10/02 02:29:36;;;;;;;;;;;10.40;99.90;;;;;;5028368;28;19929;-70
2022/10/02 02:32:04;;;;;;;;;;;10.30;99.90;;;;;;5048584;28;19921;-70
2022/10/02 02:34:32;;;;;;;;;;;10.30;99.90;;;;;;5042141;28;20438;-70
2022/10/02 02:37:05;;;;;;;;;;;10.30;99.90;;;;;;5047996;28;19924;-70
2022/10/02 02:39:44;;;;;;;;;;;10.20;99.90;;;;;;5046754;28;19933;-70
2022/10/02 02:42:11;;;;;;;;;;;10.30;99.90;;;;;;5040765;28;20002;-70
2022/10/02 02:44:41;;;;;;;;;;;10.20;99.90;;;;;;5037305;28;19967;-70
2022/10/02 02:47:22;;;;;;;;;;;10.30;99.90;;;;;;5044453;28;20247;-70
2022/10/02 02:50:01;;;;;;;;;;;10.20;99.90;;;;;;5041635;28;20629;-70
2022/10/02 02:52:34;;;;;;;;;;;10.30;99.90;;;;;;5048343;28;19948;-70
2022/10/02 02:55:04;;;;;;;;;;;10.30;99.90;;;;;;5042463;28;20425;-70
2022/10/02 02:57:53;;;;;;;;;;;10.30;99.90;;;;;;5040454;28;19944;-70
2022/10/02 03:00:18;;;;;;;;;;;10.30;99.90;;;;;;5019662;28;19971;-70
2022/10/02 03:02:44;;;;;;;;;;;10.30;99.90;;;;;;5038935;28;19925;-70
2022/10/02 03:05:14;;;;;;;;;;;10.30;99.90;;;;;;5044037;28;19928;-70
2022/10/02 03:07:45;;;;;;;;;;;10.30;99.90;;;;;;5043382;28;20008;-70
2022/10/02 03:10:15;;;;;;;;;;;10.30;99.90;;;;;;5046943;28;19927;-70
2022/10/02 03:12:50;;;;;;;;;;;10.20;99.90;;;;;;5028268;28;20044;-70
2022/10/02 03:15:31;;;;;;;;;;;10.20;99.90;;;;;;5044189;28;19925;-70
2022/10/02 03:17:56;;;;;;;;;;;10.20;99.90;;;;;;5044732;28;19925;-70
2022/10/02 03:20:27;;;;;;;;;;;10.20;99.90;;;;;;5045165;28;19921;-70
2022/10/02 03:23:06;;;;;;;;;;;10.30;99.90;;;;;;5048278;28;19921;-70
2022/10/02 03:25:35;;;;;;;;;;;10.40;99.90;;;;;;5032912;28;20024;-70
2022/10/02 03:28:05;;;;;;;;;;;10.50;99.90;;;;;;5047181;28;20370;-70
2022/10/02 03:30:31;;;;;;;;;;;10.50;99.90;;;;;;5048759;28;20007;-70
2022/10/02 03:32:59;;;;;;;;;;;10.60;99.90;;;;;;5038737;28;19925;-70
2022/10/02 03:35:25;;;;;;;;;;;10.60;99.90;;;;;;5043688;28;19925;-70
2022/10/02 03:37:52;;;;;;;;;;;10.60;99.90;;;;;;5049439;28;19936;-70
2022/10/02 03:40:25;;;;;;;;;;;10.70;99.90;;;;;;5043346;28;20417;-70
2022/10/02 03:42:51;;;;;;;;;;;10.70;99.90;;;;;;5048721;28;19999;-70
2022/10/02 03:45:19;;;;;;;;;;;10.70;99.90;;;;;;5037016;28;19932;-70
2022/10/02 03:47:45;;;;;;;;;;;10.70;99.90;;;;;;5048036;28;19966;-70
2022/10/02 03:50:11;;;;;;;;;;;10.70;99.90;;;;;;5046409;28;19929;-70
2022/10/02 03:52:37;;;;;;;;;;;10.70;99.90;;;;;;5029382;28;19975;-70
2022/10/02 03:55:04;;;;;;;;;;;10.70;99.90;;;;;;5037756;28;19921;-70
2022/10/02 03:57:32;;;;;;;;;;;10.70;99.90;;;;;;5038066;28;19940;-70
2022/10/02 04:00:04;;;;;;;;;;;10.80;99.90;;;;;;5035675;28;19975;-70
2022/10/02 04:02:42;;;;;;;;;;;10.80;99.90;;;;;;5050013;28;20393;-70
2022/10/02 04:05:13;;;;;;;;;;;10.80;99.90;;;;;;5035843;28;20287;-70
2022/10/02 04:07:40;;;;;;;;;;;10.80;99.90;;;;;;5047542;28;19929;-70
2022/10/02 04:10:06;;;;;;;;;;;10.80;99.90;;;;;;5049145;28;19925;-70
2022/10/02 04:12:34;;;;;;;;;;;10.70;99.90;;;;;;5034458;28;19975;-70
2022/10/02 04:15:03;;;;;;;;;;;10.70;99.90;;;;;;5050882;28;20337;-70
2022/10/02 04:17:37;;;;;;;;;;;10.70;99.90;;;;;;5045888;28;19928;-70
2022/10/02 04:20:05;;;;;;;;;;;10.60;99.90;;;;;;5023086;28;20000;-70
2022/10/02 04:22:30;;;;;;;;;;;10.60;99.90;;;;;;5048062;28;19998;-70
2022/10/02 04:24:59;;;;;;;;;;;10.60;99.90;;;;;;5029875;28;20309;-70
2022/10/02 04:27:34;;;;;;;;;;;10.50;99.90;;;;;;5048476;28;20693;-70
2022/10/02 04:30:03;;;;;;;;;;;10.50;99.90;;;;;;5048222;28;20280;-70
2022/10/02 04:32:29;;;;;;;;;;;10.50;99.90;;;;;;5045787;28;19987;-70
2022/10/02 04:34:55;;;;;;;;;;;10.40;99.90;;;;;;5042805;28;19935;-70
2022/10/02 04:37:27;;;;;;;;;;;10.40;99.90;;;;;;5032417;28;19929;-70
2022/10/02 04:39:52;;;;;;;;;;;10.40;99.90;;;;;;5042936;28;19932;-70
2022/10/02 04:42:18;;;;;;;;;;;10.30;99.90;;;;;;5039395;28;21859;-70
2022/10/02 04:44:53;;;;;;;;;;;10.30;99.90;;;;;;5025772;28;19921;-70
2022/10/02 04:47:19;;;;;;;;;;;10.30;99.90;;;;;;5042746;28;20306;-70
2022/10/02 04:50:03;;;;;;;;;;;10.30;99.90;;;;;;5042567;28;20015;-70
2022/10/02 04:52:31;;;;;;;;;;;10.30;99.90;;;;;;5047572;28;19925;-70
2022/10/02 04:55:15;;;;;;;;;;;10.20;99.90;;;;;;5027739;28;19925;-70
2022/10/02 04:57:50;;;;;;;;;;;10.20;99.90;;;;;;5047737;28;19929;-70
2022/10/02 05:00:16;;;;;;;;;;;10.20;99.90;;;;;;5045138;28;20004;-70
2022/10/02 05:03:00;;;;;;;;;;;10.20;99.90;;;;;;5049425;28;20670;-70
2022/10/02 05:05:32;;;;;;;;;;;10.20;99.90;;;;;;5040543;28;19929;-70
2022/10/02 05:08:10;;;;;;;;;;;10.20;99.90;;;;;;5029617;28;19925;-70
2022/10/02 05:10:47;;;;;;;;;;;10.10;99.90;;;;;;5042761;28;19921;-70
2022/10/02 05:13:31;;;;;;;;;;;10.10;99.90;;;;;;5041972;28;19960;-70
2022/10/02 05:16:15;;;;;;;;;;;10.10;99.90;;;;;;5041783;28;20071;-70
2022/10/02 05:18:44;;;;;;;;;;;10.10;99.90;;;;;;5049955;28;19928;-70
2022/10/02 05:21:09;;;;;;;;;;;10.10;99.90;;;;;;5046564;28;19963;-70
2022/10/02 05:23:39;;;;;;;;;;;10.00;99.90;;;;;;5042683;28;20879;-70
2022/10/02 05:26:09;;;;;;;;;;;10.00;99.90;;;;;;5040400;28;19932;-70
2022/10/02 05:28:56;;;;;;;;;;;10.00;99.90;;;;;;5044420;28;20011;-70
2022/10/02 05:31:39;;;;;;;;;;;9.90;99.90;;;;;;5038564;28;19921;-70
2022/10/02 05:34:04;;;;;;;;;;;9.90;99.90;;;;;;5041248;28;19924;-70
2022/10/02 05:36:45;;;;;;;;;;;9.80;99.90;;;;;;5047746;28;19925;-70
2022/10/02 05:39:19;;;;;;;;;;;9.90;99.90;;;;;;5041278;28;19925;-70
2022/10/02 05:41:51;;;;;;;;;;;9.80;99.90;;;;;;5031324;28;19971;-70
2022/10/02 05:44:20;;;;;;;;;;;9.80;99.90;;;;;;5043188;28;19967;-70
2022/10/02 05:47:05;;;;;;;;;;;9.70;99.90;;;;;;5049778;28;19928;-70
2022/10/02 05:49:43;;;;;;;;;;;9.70;99.90;;;;;;5043789;28;19932;-70
2022/10/02 05:52:14;;;;;;;;;;;9.70;99.90;;;;;;5043721;28;20019;-70
2022/10/02 05:54:42;;;;;;;;;;;9.70;99.90;;;;;;5047355;28;19932;-70
2022/10/02 05:57:10;;;;;;;;;;;9.70;99.90;;;;;;5046809;28;19932;-70
2022/10/02 05:59:39;;;;;;;;;;;9.70;99.90;;;;;;5034354;28;19921;-70
2022/10/02 06:02:22;;;;;;;;;;;9.70;99.90;;;;;;5040479;28;19925;-70
2022/10/02 06:04:53;;;;;;;;;;;9.70;99.90;;;;;;5042307;28;19925;-70
2022/10/02 06:07:19;;;;;;;;;;;9.80;99.90;;;;;;5035405;28;19944;-70
2022/10/02 06:10:00;;;;;;;;;;;9.80;99.90;;;;;;5042144;28;19924;-70
2022/10/02 06:12:25;;;;;;;;;;;9.90;99.90;;;;;;5042476;28;20287;-70
2022/10/02 06:14:59;;;;;;;;;;;9.90;99.90;;;;;;5045455;28;19924;-70
2022/10/02 06:17:26;;;;;;;;;;;9.90;99.90;;;;;;5041397;28;20453;-70
2022/10/02 06:19:54;;;;;;;;;;;10.00;99.90;;;;;;5049321;28;19921;-70
2022/10/02 06:22:22;;;;;;;;;;;10.10;99.90;;;;;;5042096;28;19929;-70
2022/10/02 06:24:50;;;;;;;;;;;10.40;99.90;;;;;;5043389;28;19921;-70
2022/10/02 06:27:34;;;;;;;;;;;10.90;99.90;;;;;;5043051;28;20017;-70
2022/10/02 06:30:02;;;;;;;;;;;11.20;99.90;;;;;;5047308;28;19925;-70
2022/10/02 06:32:32;;;;;;;;;;;11.60;99.90;;;;;;5038872;28;19994;-70
2022/10/02 06:34:58;;;;;;;;;;;11.70;99.90;;;;;;5043061;28;19951;-70
2022/10/02 06:37:32;;;;;;;;;;;11.80;99.90;;;;;;5037429;28;20275;-70
2022/10/02 06:40:33;;;;;;;;;;;12.40;99.90;;;;;;5036416;28;19994;-71
2022/10/02 06:43:09;;;;;;;;;;;13.00;99.90;;;;;;5027283;28;19928;-71
2022/10/02 06:45:47;;;;;;;;;;;13.90;99.90;;;;;;5033399;28;19936;-70
2022/10/02 06:48:32;;;;;;;;;;;14.60;99.90;;;;;;5043679;28;20321;-70
2022/10/02 06:51:00;;;;;;;;;;;15.20;99.90;;;;;;5038293;28;19929;-70
2022/10/02 06:53:33;;;;;;;;;;;15.90;99.90;;;;;;5046392;28;19971;-70
2022/10/02 06:56:21;;;;;;;;;;;16.40;99.90;;;;;;5033794;28;20317;-70
2022/10/02 06:58:49;;;;;;;;;;;16.60;99.90;;;;;;5040546;28;19921;-70
2022/10/02 07:01:23;;;;;;;;;;;17.10;99.90;;;;;;5036482;28;20041;-70
2022/10/02 07:03:58;;;;;;;;;;;17.30;99.90;;;;;;5041350;28;19956;-70
2022/10/02 07:06:34;;;;;;;;;;;17.50;99.90;;;;;;5038467;28;19925;-70
2022/10/02 07:09:18;;;;;;;;;;;17.50;99.90;;;;;;5040839;28;19936;-70
2022/10/02 07:11:44;;;;;;;;;;;17.60;99.90;;;;;;5044889;28;19931;-70
2022/10/02 07:14:29;;;;;;;;;;;17.30;99.90;;;;;;5036751;28;19925;-70
2022/10/02 07:17:10;;;;;;;;;;;16.90;99.90;;;;;;5019916;28;19929;-70
2022/10/02 07:19:48;;;;;;;;;;;16.30;99.90;;;;;;5038335;28;19925;-70
2022/10/02 07:22:26;;;;;;;;;;;15.80;99.90;;;;;;5043823;28;19974;-71
2022/10/02 07:25:08;;;;;;;;;;;15.30;99.90;;;;;;5045255;28;19948;-71
2022/10/02 07:27:37;;;;;;;;;;;14.90;99.90;;;;;;5043791;28;19925;-70
2022/10/02 07:30:10;;;;;;;;;;;14.70;99.90;;;;;;5040376;28;19921;-70
2022/10/02 07:32:42;;;;;;;;;;;14.50;99.90;;;;;;5037864;28;20006;-70
2022/10/02 07:35:27;;;;;;;;;;;14.40;99.90;;;;;;5040742;28;20452;-70
2022/10/02 07:38:12;;;;;;;;;;;14.30;99.90;;;;;;5049909;28;19925;-70
2022/10/02 07:40:47;;;;;;;;;;;14.20;99.90;;;;;;5049042;28;19924;-71
2022/10/02 07:43:24;;;;;;;;;;;14.10;99.90;;;;;;5048019;28;19921;-70
2022/10/02 07:45:56;;;;;;;;;;;14.10;99.90;;;;;;5049080;28;19932;-70
2022/10/02 07:48:30;;;;;;;;;;;14.00;99.90;;;;;;5052195;28;19921;-70
2022/10/02 07:50:59;;;;;;;;;;;13.90;99.90;;;;;;5046492;28;20282;-69
2022/10/02 07:53:30;;;;;;;;;;;13.90;99.90;;;;;;5045365;28;19925;-69
2022/10/02 07:55:57;;;;;;;;;;;13.90;99.90;;;;;;5045336;28;19932;-69
2022/10/02 07:58:34;;;;;;;;;;;14.00;99.90;;;;;;5051249;28;20470;-69
2022/10/02 08:01:01;;;;;;;;;;;14.20;99.90;;;;;;5048543;28;19924;-69
2022/10/02 08:03:35;;;;;;;;;;;14.30;99.90;;;;;;5043225;28;20309;-69
2022/10/02 08:06:02;;;;;;;;;;;14.50;99.90;;;;;;5040843;28;19964;-70
2022/10/02 08:08:29;;;;;;;;;;;14.80;99.90;;;;;;5053354;28;20358;-70
2022/10/02 08:10:57;;;;;;;;;;;14.90;99.90;;;;;;5052644;28;19924;-70
2022/10/02 08:13:27;;;;;;;;;;;14.90;99.90;;;;;;5049048;28;19924;-70
2022/10/02 08:15:54;;;;;;;;;;;14.80;99.90;;;;;;5036968;28;19921;-70
2022/10/02 08:18:23;;;;;;;;;;;14.70;99.90;;;;;;5032260;28;19924;-69
2022/10/02 08:20:49;;;;;;;;;;;14.60;99.90;;;;;;5054231;28;19927;-69
2022/10/02 08:23:20;;;;;;;;;;;14.60;99.90;;;;;;5043680;28;20325;-69
2022/10/02 08:25:54;;;;;;;;;;;14.70;99.90;;;;;;5036445;28;19928;-69
2022/10/02 08:28:25;;;;;;;;;;;14.80;99.90;;;;;;5052382;28;20002;-69
2022/10/02 08:30:51;;;;;;;;;;;14.90;99.90;;;;;;5037153;28;20011;-69
2022/10/02 08:33:20;;;;;;;;;;;14.90;99.90;;;;;;5036840;28;20625;-69
2022/10/02 08:35:46;;;;;;;;;;;15.10;99.90;;;;;;5037492;28;19932;-69
2022/10/02 08:38:19;;;;;;;;;;;15.20;99.90;;;;;;5040027;28;19921;-69
2022/10/02 08:41:03;;;;;;;;;;;15.30;99.90;;;;;;5051148;28;19951;-69
2022/10/02 08:43:52;;;;;;;;;;;15.30;99.90;;;;;;5050986;28;20003;-68
2022/10/02 08:46:18;;;;;;;;;;;15.40;99.90;;;;;;5045471;28;19925;-69
2022/10/02 08:48:54;;;;;;;;;;;15.50;99.90;;;;;;5047234;28;19920;-69
2022/10/02 08:51:29;;;;;;;;;;;15.30;99.90;;;;;;5042763;28;19967;-69
2022/10/02 08:54:14;;;;;;;;;;;15.30;99.90;;;;;;5042235;28;19921;-69
2022/10/02 08:56:48;;;;;;;;;;;15.20;99.90;;;;;;5046563;28;19929;-69
2022/10/02 08:59:33;;;;;;;;;;;15.10;99.90;;;;;;5046864;28;20007;-69
2022/10/02 09:02:18;;;;;;;;;;;15.10;99.90;;;;;;5041333;28;20453;-69
2022/10/02 09:05:02;;;;;;;;;;;15.10;99.90;;;;;;5039340;28;19929;-69
2022/10/02 09:07:40;;;;;;;;;;;15.20;99.90;;;;;;5037934;28;19932;-69
2022/10/02 09:10:09;;;;;;;;;;;15.30;99.90;;;;;;5047363;28;20383;-69
2022/10/02 09:12:40;;;;;;;;;;;15.10;99.90;;;;;;5050638;28;20313;-69
2022/10/02 09:15:06;;;;;;;;;;;15.10;99.90;;;;;;5048752;28;19950;-69
2022/10/02 09:17:45;;;;;;;;;;;15.10;99.90;;;;;;5049870;28;19929;-69
2022/10/02 09:20:24;;;;;;;;;;;15.20;99.90;;;;;;5046457;28;19921;-69
2022/10/02 09:23:08;;;;;;;;;;;15.10;99.90;;;;;;5041255;28;20422;-69
2022/10/02 09:25:43;;;;;;;;;;;15.10;99.90;;;;;;5051758;28;19920;-69
2022/10/02 09:28:32;;;;;;;;;;;15.10;99.90;;;;;;5046103;28;19929;-69
2022/10/02 09:31:02;;;;;;;;;;;15.20;99.90;;;;;;5038895;28;19929;-69
2022/10/02 09:33:46;;;;;;;;;;;15.30;99.90;;;;;;5043726;28;19986;-69
2022/10/02 09:36:26;;;;;;;;;;;15.30;99.90;;;;;;5048814;28;20065;-69
2022/10/02 09:39:01;;;;;;;;;;;15.40;99.90;;;;;;5050211;28;19929;-69
2022/10/02 09:41:46;;;;;;;;;;;15.30;99.90;;;;;;5036155;28;19928;-69
2022/10/02 09:44:31;;;;;;;;;;;15.40;99.90;;;;;;5026645;28;19925;-68
2022/10/02 09:46:59;;;;;;;;;;;15.60;99.90;;;;;;5032643;28;19921;-69
2022/10/02 09:49:39;;;;;;;;;;;15.90;99.90;;;;;;5033708;28;20016;-69
2022/10/02 09:52:23;;;;;;;;;;;16.20;99.90;;;;;;5041925;28;20398;-69
2022/10/02 09:54:55;;;;;;;;;;;16.20;99.90;;;;;;5049158;28;19920;-69
2022/10/02 09:57:30;;;;;;;;;;;16.10;99.90;;;;;;5045725;28;19932;-69
2022/10/02 10:00:01;;;;;;;;;;;16.00;99.90;;;;;;5042169;28;19921;-69
2022/10/02 10:02:47;;;;;;;;;;;15.90;99.90;;;;;;5048286;28;19979;-69
2022/10/02 10:05:13;;;;;;;;;;;15.80;99.90;;;;;;5039261;28;19984;-69
2022/10/02 10:07:57;;;;;;;;;;;15.70;99.90;;;;;;5042489;28;20016;-69
2022/10/02 10:10:33;;;;;;;;;;;15.50;99.90;;;;;;5036969;28;19929;-69
2022/10/02 10:13:20;;;;;;;;;;;15.40;99.90;;;;;;5040531;28;20355;-70
2022/10/02 10:16:01;;;;;;;;;;;15.40;99.90;;;;;;5035567;28;19972;-70
2022/10/02 10:18:46;;;;;;;;;;;15.40;99.90;;;;;;5032283;28;20538;-71
2022/10/02 10:21:12;;;;;;;;;;;15.60;99.90;;;;;;5046926;28;19932;-70
2022/10/02 10:23:44;;;;;;;;;;;15.60;99.90;;;;;;5038667;28;19924;-70
2022/10/02 10:26:20;;;;;;;;;;;15.60;99.90;;;;;;5015108;28;19964;-70
2022/10/02 10:28:57;;;;;;;;;;;15.60;99.90;;;;;;5038311;28;20024;-70
2022/10/02 10:31:29;;;;;;;;;;;15.70;99.90;;;;;;5045366;28;19928;-70
2022/10/02 10:34:01;;;;;;;;;;;15.90;99.90;;;;;;5034575;28;19921;-69
2022/10/02 10:39:36;;;;;;;;;;;15.90;99.90;;;;;;5049785;28;19929;-69
2022/10/02 10:42:07;;;;;;;;;;;16.10;99.90;;;;;;5038054;28;19928;-69
2022/10/02 10:44:36;;;;;;;;;;;16.10;99.90;;;;;;5047234;28;20496;-69
2022/10/02 10:47:01;;;;;;;;;;;16.30;99.90;;;;;;5049951;28;19920;-69
2022/10/02 10:50:01;;;;;;;;;;;16.30;99.90;;;;;;5027883;28;19925;-70
2022/10/02 10:52:27;;;;;;;;;;;16.30;99.90;;;;;;5040550;28;19925;-70
2022/10/02 10:54:54;;;;;;;;;;;16.40;99.90;;;;;;5038238;28;19921;-70
2022/10/02 10:57:39;;;;;;;;;;;16.40;99.90;;;;;;5044400;28;19933;-70
2022/10/02 11:00:19;;;;;;;;;;;16.50;99.90;;;;;;5041349;28;19928;-70
2022/10/02 11:02:53;;;;;;;;;;;16.60;99.90;;;;;;5047517;28;19921;-70
2022/10/02 11:05:58;;;;;;;;;;;16.70;99.90;;;;;;5045817;28;19920;-69
2022/10/02 11:08:42;;;;;;;;;;;16.80;99.90;;;;;;5031482;28;19955;-70
2022/10/02 11:11:26;;;;;;;;;;;16.70;99.90;;;;;;5029484;28;19923;-70
2022/10/02 11:14:15;;;;;;;;;;;16.60;99.90;;;;;;5033639;28;20012;-70
2022/10/02 11:16:53;;;;;;;;;;;16.20;99.90;;;;;;5031537;28;19933;-70
2022/10/02 11:19:42;;;;;;;;;;;16.00;99.90;;;;;;5045997;28;19974;-69
2022/10/02 11:22:37;;;;;;;;;;;15.90;99.90;;;;;;5046713;28;19971;-69
2022/10/02 11:25:10;;;;;;;;;;;16.00;99.90;;;;;;5032568;28;19921;-69
2022/10/02 11:27:48;;;;;;;;;;;16.20;99.90;;;;;;5029730;28;19921;-69
2022/10/02 11:30:20;;;;;;;;;;;16.30;99.90;;;;;;5029700;28;19975;-69
2022/10/02 11:33:00;;;;;;;;;;;16.40;99.90;;;;;;5042044;28;20659;-69
2022/10/02 11:35:31;;;;;;;;;;;16.50;99.90;;;;;;5040069;28;19920;-69
2022/10/02 11:38:00;;;;;;;;;;;16.60;99.90;;;;;;5031019;28;20406;-70
2022/10/02 11:40:25;;;;;;;;;;;16.70;99.90;;;;;;5039982;28;19929;-71
2022/10/02 11:43:12;;;;;;;;;;;16.80;99.90;;;;;;5041821;28;19921;-70
2022/10/02 11:45:47;;;;;;;;;;;17.00;99.90;;;;;;5046281;28;19925;-70
2022/10/02 11:48:32;;;;;;;;;;;17.10;99.90;;;;;;5044609;28;20394;-70
2022/10/02 11:51:19;;;;;;;;;;;17.20;99.90;;;;;;5046427;28;19928;-70
2022/10/02 11:54:03;;;;;;;;;;;17.30;99.90;;;;;;5035915;28;19921;-70
2022/10/02 11:56:30;;;;;;;;;;;17.50;99.90;;;;;;5030683;28;19929;-70
2022/10/02 11:59:01;;;;;;;;;;;17.40;99.90;;;;;;5043887;28;19951;-70
2022/10/02 12:18:57;;;;;;;;;;;16.80;99.90;;;;;;1494209;26;19924;-68
2022/10/02 12:27:11;;;;;;;;;;;17.00;99.90;;;;;;5049939;28;20346;-69
2022/10/02 12:29:55;;;;;;;;;;;17.00;99.90;;;;;;5052227;28;20020;-69
2022/10/02 12:32:27;;;;;;;;;;;17.30;99.90;;;;;;5052565;28;19931;-69
2022/10/02 12:34:58;;;;;;;;;;;17.30;99.90;;;;;;5036062;28;19960;-69
2022/10/02 12:37:27;;;;;;;;;;;17.30;99.90;;;;;;5052041;28;19924;-68
2022/10/02 12:40:30;;;;;;;;;;;17.30;99.90;;;;;;5046164;28;19928;-68
2022/10/02 12:43:16;;;;;;;;;;;17.30;99.90;;;;;;5037457;28;20349;-68
2022/10/02 12:45:51;;;;;;;;;;;17.40;99.90;;;;;;5041854;28;20011;-68
2022/10/02 12:48:17;;;;;;;;;;;17.30;99.90;;;;;;5052169;28;20010;-68
2022/10/02 12:50:42;;;;;;;;;;;17.40;99.90;;;;;;5049091;28;19948;-68
2022/10/02 12:53:28;;;;;;;;;;;17.30;99.90;;;;;;5051671;28;19924;-68
2022/10/02 12:56:16;;;;;;;;;;;17.30;99.90;;;;;;5049597;28;19960;-68
2022/10/02 12:58:59;;;;;;;;;;;17.10;99.90;;;;;;5043704;28;19925;-68
2022/10/02 13:01:45;;;;;;;;;;;17.10;99.90;;;;;;5050625;28;19954;-68
2022/10/02 13:04:17;;;;;;;;;;;17.10;99.90;;;;;;5051030;28;19925;-68
2022/10/02 13:06:55;;;;;;;;;;;17.30;99.90;;;;;;5051918;28;19932;-68
2022/10/02 13:09:43;;;;;;;;;;;17.40;99.90;;;;;;5051818;28;19929;-68
2022/10/02 13:12:25;;;;;;;;;;;17.50;99.90;;;;;;5033809;28;19932;-68
2022/10/02 13:15:03;;;;;;;;;;;17.80;99.90;;;;;;5051189;28;20333;-69
2022/10/02 13:17:32;;;;;;;;;;;18.00;99.90;;;;;;5047179;28;20397;-68
2022/10/02 13:20:02;;;;;;;;;;;18.00;99.90;;;;;;5050805;28;19987;-68
2022/10/02 13:22:50;;;;;;;;;;;18.00;99.90;;;;;;5051626;28;20401;-68
2022/10/02 13:25:34;;;;;;;;;;;17.80;99.40;;;;;;5051693;28;19931;-68
2022/10/02 13:28:16;;;;;;;;;;;17.70;99.90;;;;;;5050449;28;19971;-68
2022/10/02 13:31:01;;;;;;;;;;;17.70;99.90;;;;;;5036761;28;20000;-68
2022/10/02 13:33:41;;;;;;;;;;;17.70;99.90;;;;;;5033592;28;20007;-68
2022/10/02 13:36:06;;;;;;;;;;;17.50;99.90;;;;;;5048259;28;20286;-68
2022/10/02 13:38:44;;;;;;;;;;;17.40;99.90;;;;;;5051471;28;19921;-68
2022/10/02 13:41:30;;;;;;;;;;;17.20;99.90;;;;;;5050990;28;19974;-68
2022/10/02 13:43:55;;;;;;;;;;;17.00;99.90;;;;;;5051142;28;19927;-68
2022/10/02 13:46:40;;;;;;;;;;;16.90;99.90;;;;;;5042520;28;19925;-67
2022/10/02 13:49:12;;;;;;;;;;;16.90;99.90;;;;;;5048606;28;19924;-67
2022/10/02 13:51:43;;;;;;;;;;;16.90;99.90;;;;;;5049340;28;19929;-67
2022/10/02 13:54:20;;;;;;;;;;;17.00;99.90;;;;;;5045983;28;20022;-67
2022/10/02 13:57:03;;;;;;;;;;;17.10;99.90;;;;;;5047772;28;19956;-67
2022/10/02 13:59:32;;;;;;;;;;;17.20;99.90;;;;;;5049926;28;20381;-67
2022/10/02 14:02:06;;;;;;;;;;;17.20;99.90;;;;;;5045742;28;19921;-67
2022/10/02 14:04:32;;;;;;;;;;;17.20;99.90;;;;;;5046282;28;20301;-68
2022/10/02 14:07:07;;;;;;;;;;;17.20;99.90;;;;;;5049363;28;19920;-67
2022/10/02 14:09:50;;;;;;;;;;;17.00;99.90;;;;;;5048782;28;19929;-68
2022/10/02 14:12:19;;;;;;;;;;;17.00;99.90;;;;;;5033707;28;19947;-67
2022/10/02 14:15:08;;;;;;;;;;;16.80;99.90;;;;;;5050735;28;19925;-67
2022/10/02 14:17:50;;;;;;;;;;;16.70;99.90;;;;;;5020363;28;20281;-67
2022/10/02 14:20:25;;;;;;;;;;;16.70;99.90;;;;;;5047515;28;20381;-67
2022/10/02 14:23:03;;;;;;;;;;;16.70;99.90;;;;;;5046737;28;20003;-67
2022/10/02 14:25:44;;;;;;;;;;;16.80;99.90;;;;;;5049295;28;20035;-68
2022/10/02 14:28:28;;;;;;;;;;;16.70;99.90;;;;;;5049159;28;19932;-68
2022/10/02 14:31:00;;;;;;;;;;;16.80;99.90;;;;;;5029537;28;19927;-67
2022/10/02 14:33:28;;;;;;;;;;;16.70;99.90;;;;;;5033657;28;20251;-67
2022/10/02 14:36:13;;;;;;;;;;;16.70;99.90;;;;;;5048019;28;21028;-68
2022/10/02 14:39:02;;;;;;;;;;;16.60;99.90;;;;;;5049697;28;19975;-67
2022/10/02 14:41:33;;;;;;;;;;;16.50;99.90;;;;;;5002269;28;19921;-68
2022/10/02 14:44:07;;;;;;;;;;;16.50;99.90;;;;;;5044067;28;19932;-68
2022/10/02 14:46:48;;;;;;;;;;;16.60;99.90;;;;;;5048477;28;19924;-68
2022/10/02 14:49:14;;;;;;;;;;;16.80;99.90;;;;;;5049904;28;19959;-68
2022/10/02 14:51:58;;;;;;;;;;;16.90;99.90;;;;;;5048817;28;20290;-68
2022/10/02 14:54:30;;;;;;;;;;;17.00;99.90;;;;;;5043176;28;19925;-68
2022/10/02 14:57:05;;;;;;;;;;;17.00;99.90;;;;;;5049286;28;19968;-67
2022/10/02 14:59:49;;;;;;;;;;;16.90;99.90;;;;;;5046037;28;19925;-68
2022/10/02 15:02:20;;;;;;;;;;;17.00;99.90;;;;;;5026238;28;19943;-67
2022/10/02 15:04:54;;;;;;;;;;;16.90;99.90;;;;;;5031337;28;19925;-67
2022/10/02 15:07:20;;;;;;;;;;;17.00;99.90;;;;;;5044954;28;20333;-67
2022/10/02 15:09:52;;;;;;;;;;;17.00;99.90;;;;;;5045798;28;19927;-67
2022/10/02 15:12:24;;;;;;;;;;;16.90;99.90;;;;;;5032826;28;19929;-66
2022/10/02 15:15:06;;;;;;;;;;;16.70;99.90;;;;;;5047767;28;19927;-67
2022/10/02 15:20:19;;;;;;;;;;;16.70;99.90;;;;;;5042895;28;20014;-67
2022/10/02 15:22:53;;;;;;;;;;;16.50;99.90;;;;;;5049559;28;19920;-67
2022/10/02 15:25:32;;;;;;;;;;;16.40;99.90;;;;;;5047678;28;20321;-66
2022/10/02 15:28:13;;;;;;;;;;;16.40;99.90;;;;;;5046651;28;20563;-66
2022/10/02 15:30:42;;;;;;;;;;;16.30;99.90;;;;;;5044064;28;19921;-67